Time;durP1;ratioP1;P1;durP2;ratioP2;P2;SDS_P1;SDS_P2;PMS_P1;PMS_P2;Temp;Humidity;BMP_temperature;BMP_pressure;BME280_temperature;BME280_humidity;BME280_pressure;Samples;Min_cycle;Max_cycle;Signal;HPM_P1;HPM_P2
2023/08/01 00:00:32;;;;;;;0.10;0.10;;;16.40;99.90;;;;;;5059582;28;20021;-78
2023/08/01 00:02:58;;;;;;;0.20;0.20;;;19.40;99.90;;;;;;5042267;28;20032;-84
2023/08/01 00:05:23;;;;;;;0.10;0.10;;;16.50;99.90;;;;;;5059747;28;20040;-79
2023/08/01 00:07:49;;;;;;;0.10;0.10;;;16.70;99.90;;;;;;5059569;28;20044;-79
2023/08/01 00:10:16;;;;;;;0.10;0.10;;;16.50;99.90;;;;;;5042760;28;20624;-80
2023/08/01 00:12:42;;;;;;;0.10;0.10;;;16.70;99.90;;;;;;5059543;28;20100;-78
2023/08/01 00:15:08;;;;;;;0.10;0.10;;;16.60;99.90;;;;;;5041803;28;20021;-83
2023/08/01 00:17:34;;;;;;;0.10;0.10;;;15.80;99.90;;;;;;5059905;28;20024;-79
2023/08/01 00:20:06;;;;;;;0.10;0.10;;;17.00;99.90;;;;;;5059718;28;20102;-79
2023/08/01 00:22:32;;;;;;;0.10;0.10;;;16.60;99.90;;;;;;5059207;28;20116;-81
2023/08/01 00:24:58;;;;;;;0.10;0.10;;;16.80;99.90;;;;;;5059638;28;20119;-76
2023/08/01 00:27:24;;;;;;;0.30;0.30;;;16.40;99.90;;;;;;5059869;28;20016;-76
2023/08/01 00:29:50;;;;;;;0.20;0.20;;;;;;;;;;5059806;28;20029;-83
2023/08/01 00:32:16;;;;;;;0.10;0.10;;;16.40;99.90;;;;;;5059267;28;20130;-78
2023/08/01 00:34:41;;;;;;;0.70;0.70;;;16.30;99.90;;;;;;5058894;28;20681;-83
2023/08/01 00:37:07;;;;;;;0.10;0.10;;;;;;;;;;5059325;28;20047;-81
2023/08/01 00:39:33;;;;;;;0.10;0.10;;;16.40;99.90;;;;;;5059416;28;20063;-85
2023/08/01 00:42:03;;;;;;;0.10;0.10;;;16.20;99.90;;;;;;5060233;28;20017;-77
2023/08/01 00:44:33;;;;;;;0.10;0.10;;;16.00;99.90;;;;;;5059697;28;20021;-76
2023/08/01 00:46:59;;;;;;;0.10;0.10;;;;;;;;;;5057649;28;20016;-77
2023/08/01 00:49:25;;;;;;;0.10;0.10;;;15.80;99.90;;;;;;5058853;28;20103;-78
2023/08/01 00:51:51;;;;;;;0.10;0.10;;;15.70;99.90;;;;;;5058885;28;20471;-78
2023/08/01 00:54:17;;;;;;;0.10;0.10;;;15.60;99.90;;;;;;5059015;28;20036;-76
2023/08/01 00:56:43;;;;;;;0.10;0.10;;;15.60;99.90;;;;;;5059015;28;20727;-77
2023/08/01 00:59:09;;;;;;;0.10;0.10;;;17.60;99.90;;;;;;5058978;28;20625;-83
2023/08/01 01:01:34;;;;;;;0.10;0.10;;;15.80;99.90;;;;;;5059022;28;20024;-79
2023/08/01 01:04:00;;;;;;;0.10;0.10;;;15.80;99.90;;;;;;5058560;28;20128;-77
2023/08/01 01:06:39;;;;;;;0.10;0.10;;;15.80;99.90;;;;;;5058819;28;20056;-79
2023/08/01 01:09:18;;;;;;;0.10;0.10;;;13.60;99.90;;;;;;5058831;28;20032;-78
2023/08/01 01:11:44;;;;;;;0.10;0.10;;;15.90;99.90;;;;;;5058654;28;20679;-79
2023/08/01 01:14:10;;;;;;;0.10;0.10;;;15.60;99.90;;;;;;5058691;28;20086;-85
2023/08/01 01:16:36;;;;;;;0.10;0.10;;;15.50;99.90;;;;;;5058534;28;20024;-81
2023/08/01 01:19:06;;;;;;;0.10;0.10;;;15.40;99.90;;;;;;5058243;28;20023;-79
2023/08/01 01:21:38;;;;;;;0.10;0.10;;;15.30;99.90;;;;;;5058290;28;20016;-79
2023/08/01 01:24:05;;;;;;;0.10;0.10;;;15.20;99.90;;;;;;5057393;28;20040;-82
2023/08/01 01:26:33;;;;;;;0.30;0.30;;;15.10;99.90;;;;;;5058925;28;20605;-84
2023/08/01 01:28:59;;;;;;;0.10;0.10;;;15.00;99.90;;;;;;5058727;28;20012;-78
2023/08/01 01:31:25;;;;;;;0.32;0.30;;;15.00;99.90;;;;;;5058691;28;20078;-87
2023/08/01 01:33:51;;;;;;;0.10;0.10;;;15.00;99.90;;;;;;5058258;28;20503;-86
2023/08/01 01:36:17;;;;;;;0.10;0.10;;;14.90;99.90;;;;;;5058314;28;20245;-82
2023/08/01 01:38:43;;;;;;;0.10;0.10;;;;;;;;;;5057942;28;20552;-79
2023/08/01 01:41:11;;;;;;;0.10;0.10;;;14.90;99.90;;;;;;5058192;28;20086;-80
2023/08/01 01:43:37;;;;;;;0.10;0.10;;;14.90;99.90;;;;;;5058496;28;20024;-78
2023/08/01 01:46:04;;;;;;;0.10;0.10;;;15.00;99.90;;;;;;5058475;28;20039;-81
2023/08/01 01:48:30;;;;;;;0.10;0.10;;;15.30;99.90;;;;;;5057614;28;20013;-83
2023/08/01 01:50:55;;;;;;;0.10;0.10;;;16.20;99.90;;;;;;5058567;28;20104;-84
2023/08/01 01:53:21;;;;;;;0.10;0.10;;;16.50;99.90;;;;;;5058085;28;20063;-81
2023/08/01 01:55:47;;;;;;;0.35;0.35;;;16.90;99.90;;;;;;5040840;28;20016;-80
2023/08/01 01:58:13;;;;;;;0.10;0.10;;;16.70;99.90;;;;;;5057936;28;20028;-76
2023/08/01 02:00:38;;;;;;;0.10;0.10;;;16.60;99.90;;;;;;5058143;28;20209;-76
2023/08/01 02:03:04;;;;;;;0.10;0.10;;;16.50;99.90;;;;;;5058124;28;20013;-78
2023/08/01 02:05:30;;;;;;;0.10;0.10;;;15.90;99.90;;;;;;5057388;28;20041;-87
2023/08/01 02:07:56;;;;;;;0.10;0.10;;;16.00;99.90;;;;;;5057713;28;20024;-80
2023/08/01 02:10:22;;;;;;;0.10;0.10;;;15.90;99.90;;;;;;5057966;28;20020;-81
2023/08/01 02:12:47;;;;;;;0.10;0.10;;;15.50;99.90;;;;;;5058363;28;20081;-80
2023/08/01 02:15:13;;;;;;;0.10;0.10;;;;;;;;;;5058138;28;20017;-78
2023/08/01 02:17:40;;;;;;;0.10;0.10;;;15.10;99.90;;;;;;5057811;28;20054;-83
2023/08/01 02:20:06;;;;;;;0.30;0.30;;;15.20;99.90;;;;;;5057905;28;20029;-81
2023/08/01 02:22:33;;;;;;;0.10;0.10;;;15.00;99.90;;;;;;5058420;28;20024;-77
2023/08/01 02:24:58;;;;;;;0.10;0.10;;;15.00;99.90;;;;;;5057936;28;20024;-77
2023/08/01 02:27:24;;;;;;;0.10;0.10;;;14.90;99.90;;;;;;5039656;28;20020;-82
2023/08/01 02:29:50;;;;;;;0.10;0.10;;;14.70;99.90;;;;;;5057831;28;20575;-86
2023/08/01 02:32:16;;;;;;;0.10;0.10;;;14.60;99.90;;;;;;5057708;28;20017;-78
2023/08/01 02:34:44;;;;;;;0.10;0.10;;;14.60;99.90;;;;;;5057305;28;20024;-78
2023/08/01 02:37:10;;;;;;;0.10;0.10;;;15.50;99.90;;;;;;5040198;28;20024;-83
2023/08/01 02:39:36;;;;;;;0.10;0.10;;;15.00;99.90;;;;;;5057769;28;20025;-84
2023/08/01 02:42:02;;;;;;;0.20;0.20;;;14.90;99.90;;;;;;5058382;28;20655;-83
2023/08/01 02:44:28;;;;;;;0.10;0.10;;;14.80;99.90;;;;;;5057413;28;20021;-82
2023/08/01 02:46:54;;;;;;;0.10;0.10;;;14.70;99.90;;;;;;5057762;28;20009;-78
2023/08/01 02:49:20;;;;;;;0.10;0.10;;;15.70;99.90;;;;;;5057584;28;20020;-81
2023/08/01 02:51:45;;;;;;;0.10;0.10;;;16.10;99.90;;;;;;5057504;28;20103;-82
2023/08/01 02:54:11;;;;;;;0.10;0.10;;;17.00;99.90;;;;;;5057459;28;20502;-83
2023/08/01 02:56:40;;;;;;;0.10;0.10;;;17.40;99.90;;;;;;5057651;28;20643;-78
2023/08/01 02:59:08;;;;;;;0.28;0.28;;;17.50;99.90;;;;;;5059300;28;20067;-83
2023/08/01 03:01:35;;;;;;;0.10;0.10;;;17.90;99.90;;;;;;5060974;28;20554;-83
2023/08/01 03:04:03;;;;;;;0.10;0.10;;;17.70;99.90;;;;;;5060810;28;20023;-79
2023/08/01 03:06:29;;;;;;;0.10;0.10;;;17.80;99.90;;;;;;5060558;28;20049;-81
2023/08/01 03:08:55;;;;;;;0.10;0.10;;;17.60;99.90;;;;;;5060866;28;20679;-84
2023/08/01 03:11:21;;;;;;;0.10;0.10;;;17.60;99.90;;;;;;5060850;28;20020;-83
2023/08/01 03:13:47;;;;;;;0.10;0.10;;;17.40;99.90;;;;;;5060657;28;20028;-83
2023/08/01 03:16:12;;;;;;;0.10;0.10;;;15.20;99.90;;;;;;5060995;28;20012;-84
2023/08/01 03:18:38;;;;;;;0.10;0.10;;;17.30;99.90;;;;;;5060498;28;20106;-79
2023/08/01 03:21:04;;;;;;;2.53;1.92;;;17.10;99.90;;;;;;5060365;28;20020;-79
2023/08/01 03:23:30;;;;;;;0.10;0.10;;;16.90;99.90;;;;;;5061073;28;20020;-82
2023/08/01 03:25:56;;;;;;;0.10;0.10;;;16.50;99.90;;;;;;5060161;28;20025;-78
2023/08/01 03:28:21;;;;;;;0.28;0.28;;;16.40;99.90;;;;;;5060844;28;20028;-77
2023/08/01 03:30:50;;;;;;;0.10;0.10;;;16.10;99.90;;;;;;5060813;28;20028;-84
2023/08/01 03:33:16;;;;;;;0.10;0.10;;;15.90;99.90;;;;;;5060803;28;20029;-83
2023/08/01 03:35:42;;;;;;;0.10;0.10;;;14.70;99.90;;;;;;5060743;28;20071;-79
2023/08/01 03:38:08;;;;;;;0.10;0.10;;;15.50;99.90;;;;;;5060774;28;20594;-78
2023/08/01 03:40:33;;;;;;;0.10;0.10;;;15.50;99.90;;;;;;5060956;28;20017;-79
2023/08/01 03:43:00;;;;;;;0.08;0.08;;;;;;;;;;5061276;28;20095;-82
2023/08/01 03:45:25;;;;;;;0.10;0.10;;;15.10;99.90;;;;;;5060674;28;20032;-79
2023/08/01 03:47:51;;;;;;;0.10;0.10;;;15.10;99.90;;;;;;5060823;28;20024;-82
2023/08/01 03:50:17;;;;;;;0.10;0.10;;;15.50;99.90;;;;;;5060587;28;20029;-80
2023/08/01 03:52:43;;;;;;;0.10;0.10;;;15.50;99.90;;;;;;5060518;28;20031;-80
2023/08/01 03:55:08;;;;;;;0.10;0.10;;;15.50;99.90;;;;;;5060539;28;20020;-83
2023/08/01 03:57:34;;;;;;;0.10;0.10;;;16.40;99.90;;;;;;5059931;28;20020;-81
2023/08/01 04:00:00;;;;;;;0.30;0.30;;;16.20;99.90;;;;;;5059561;28;20269;-78
2023/08/01 04:02:28;;;;;;;0.10;0.10;;;15.90;99.90;;;;;;5060289;28;20074;-79
2023/08/01 04:04:54;;;;;;;0.15;0.15;;;16.00;99.90;;;;;;5041547;28;20043;-82
2023/08/01 04:07:20;;;;;;;0.10;0.10;;;16.20;99.90;;;;;;5059362;28;20041;-78
2023/08/01 04:09:46;;;;;;;0.10;0.10;;;16.60;99.90;;;;;;5059251;28;20077;-79
2023/08/01 04:12:11;;;;;;;0.22;0.22;;;16.70;99.90;;;;;;5059890;28;20017;-81
2023/08/01 04:14:37;;;;;;;0.10;0.10;;;17.10;99.90;;;;;;5059688;28;20075;-84
2023/08/01 04:17:03;;;;;;;0.10;0.10;;;17.00;99.90;;;;;;5059476;28;20021;-84
2023/08/01 04:19:29;;;;;;;0.10;0.10;;;16.60;99.90;;;;;;5059439;28;20048;-77
2023/08/01 04:21:54;;;;;;;0.20;0.20;;;17.10;99.90;;;;;;5059366;28;20183;-78
2023/08/01 04:24:20;;;;;;;0.15;0.15;;;16.80;99.90;;;;;;5042092;28;20031;-81
2023/08/01 04:26:46;;;;;;;0.10;0.10;;;16.80;99.90;;;;;;5059984;28;20089;-82
2023/08/01 04:29:15;;;;;;;0.10;0.10;;;16.50;99.90;;;;;;5059544;28;20102;-85
2023/08/01 04:31:41;;;;;;;0.10;0.10;;;16.70;99.90;;;;;;5059425;28;20051;-84
2023/08/01 04:34:06;;;;;;;0.10;0.10;;;16.80;99.90;;;;;;5059284;28;20066;-77
2023/08/01 04:36:32;;;;;;;0.10;0.10;;;17.10;99.90;;;;;;5059533;28;20036;-77
2023/08/01 04:38:58;;;;;;;0.10;0.10;;;16.80;99.90;;;;;;5058928;28;20479;-84
2023/08/01 04:41:24;;;;;;;0.10;0.10;;;17.20;99.90;;;;;;5058826;28;20028;-77
2023/08/01 04:43:49;;;;;;;0.10;0.10;;;16.80;99.90;;;;;;5041261;28;20016;-81
2023/08/01 04:46:15;;;;;;;0.10;0.10;;;17.10;99.90;;;;;;5058420;28;20221;-78
2023/08/01 04:48:41;;;;;;;0.10;0.10;;;17.50;99.90;;;;;;5058941;28;20052;-77
2023/08/01 04:51:10;;;;;;;0.10;0.10;;;18.00;99.90;;;;;;5041683;28;20054;-84
2023/08/01 04:53:35;;;;;;;0.10;0.10;;;18.40;99.90;;;;;;5059260;28;20040;-81
2023/08/01 04:56:01;;;;;;;0.17;0.17;;;18.50;99.90;;;;;;5059215;28;20663;-80
2023/08/01 04:58:30;;;;;;;0.20;0.20;;;18.50;99.90;;;;;;5059199;28;20031;-82
2023/08/01 05:00:58;;;;;;;0.10;0.10;;;18.30;99.90;;;;;;5058628;28;20012;-79
2023/08/01 05:03:24;;;;;;;0.15;0.15;;;17.70;99.90;;;;;;5058924;28;20024;-82
2023/08/01 05:05:50;;;;;;;0.70;0.63;;;18.40;99.90;;;;;;5040263;28;20089;-78
2023/08/01 05:08:23;;;;;;;0.10;0.10;;;19.10;99.90;;;;;;5058204;28;20575;-77
2023/08/01 05:10:49;;;;;;;0.10;0.10;;;19.60;99.90;;;;;;5058568;28;20027;-79
2023/08/01 05:13:14;;;;;;;0.10;0.10;;;19.70;99.90;;;;;;5059533;28;20025;-78
2023/08/01 05:15:40;;;;;;;0.10;0.10;;;19.90;99.90;;;;;;5040691;28;20048;-83
2023/08/01 05:18:06;;;;;;;0.10;0.10;;;20.20;99.90;;;;;;5058244;28;20009;-78
2023/08/01 05:20:33;;;;;;;0.10;0.10;;;20.30;99.90;;;;;;5057916;28;20032;-79
2023/08/01 05:22:59;;;;;;;0.10;0.10;;;20.40;99.90;;;;;;5057930;28;20267;-78
2023/08/01 05:25:25;;;;;;;0.10;0.10;;;20.50;99.90;;;;;;5058193;28;20824;-82
2023/08/01 05:27:51;;;;;;;0.50;0.50;;;20.60;99.90;;;;;;5057903;28;20020;-78
2023/08/01 05:30:17;;;;;;;0.10;0.10;;;20.70;99.90;;;;;;5058382;28;20047;-81
2023/08/01 05:32:43;;;;;;;0.10;0.10;;;20.90;99.90;;;;;;5057953;28;20013;-81
2023/08/01 05:35:09;;;;;;;0.10;0.10;;;20.90;99.90;;;;;;5057636;28;20063;-78
2023/08/01 05:37:35;;;;;;;0.10;0.10;;;21.00;99.90;;;;;;5039813;28;20738;-83
2023/08/01 05:40:03;;;;;;;0.10;0.10;;;21.10;99.90;;;;;;5039339;28;20040;-80
2023/08/01 05:42:29;;;;;;;0.20;0.20;;;21.10;99.90;;;;;;5057597;28;20046;-80
2023/08/01 05:44:55;;;;;;;0.50;0.50;;;21.20;99.90;;;;;;5057533;28;20029;-78
2023/08/01 05:47:22;;;;;;;0.10;0.10;;;21.30;99.90;;;;;;5057701;28;20753;-80
2023/08/01 05:49:48;;;;;;;0.10;0.10;;;21.50;99.90;;;;;;5058039;28;20017;-78
2023/08/01 05:52:14;;;;;;;0.43;0.43;;;21.60;99.90;;;;;;5057435;28;20110;-82
2023/08/01 05:54:42;;;;;;;0.10;0.10;;;21.60;99.90;;;;;;5057477;28;20649;-80
2023/08/01 05:57:10;;;;;;;0.10;0.10;;;21.80;99.90;;;;;;5057717;28;20017;-80
2023/08/01 05:59:37;;;;;;;0.10;0.10;;;21.80;99.90;;;;;;5057584;28;20241;-81
2023/08/01 06:02:02;;;;;;;1.33;1.33;;;21.30;99.90;;;;;;5057707;28;20056;-82
2023/08/01 06:04:28;;;;;;;0.10;0.10;;;21.50;99.90;;;;;;5057663;28;20017;-84
2023/08/01 06:06:54;;;;;;;0.10;0.10;;;21.70;99.90;;;;;;5057453;28;20075;-80
2023/08/01 06:09:20;;;;;;;0.10;0.10;;;21.70;99.90;;;;;;5066486;28;20020;-82
2023/08/01 06:11:46;;;;;;;0.10;0.10;;;21.60;99.90;;;;;;5064781;28;20044;-82
2023/08/01 06:14:12;;;;;;;0.28;0.28;;;21.60;99.90;;;;;;5063255;28;20021;-89
2023/08/01 06:16:38;;;;;;;0.10;0.10;;;21.60;99.90;;;;;;5063577;28;20031;-78
2023/08/01 06:19:04;;;;;;;0.10;0.10;;;21.60;99.90;;;;;;5059303;28;20040;-89
2023/08/01 06:21:29;;;;;;;0.20;0.20;;;21.50;99.90;;;;;;5042771;28;20049;-80
2023/08/01 06:23:55;;;;;;;0.10;0.10;;;22.20;99.90;;;;;;5060276;28;20025;-82
2023/08/01 06:26:21;;;;;;;1.55;1.23;;;19.50;99.90;;;;;;5060366;28;20070;-78
2023/08/01 06:28:47;;;;;;;2.67;2.58;;;21.70;99.90;;;;;;5058766;28;20590;-90
2023/08/01 06:31:12;;;;;;;3.42;1.55;;;21.80;99.90;;;;;;5058922;28;20025;-81
2023/08/01 06:33:44;;;;;;;0.22;0.22;;;21.90;99.90;;;;;;5059935;28;20030;-79
2023/08/01 06:36:11;;;;;;;1.35;1.20;;;21.80;99.90;;;;;;5066252;28;20123;-80
2023/08/01 06:38:37;;;;;;;1.17;1.10;;;21.90;99.90;;;;;;5069419;28;20044;-81
2023/08/01 06:41:03;;;;;;;0.35;0.32;;;21.90;99.90;;;;;;5065631;28;20017;-84
2023/08/01 06:43:28;;;;;;;0.43;0.43;;;22.10;99.90;;;;;;5063794;28;20020;-78
2023/08/01 06:45:54;;;;;;;0.20;0.20;;;22.20;99.90;;;;;;5062091;28;20025;-81
2023/08/01 06:48:20;;;;;;;0.40;0.40;;;22.20;99.90;;;;;;5062871;28;20698;-77
2023/08/01 06:50:45;;;;;;;0.17;0.17;;;22.20;99.90;;;;;;5062818;28;20046;-84
2023/08/01 06:53:11;;;;;;;1.02;0.95;;;22.30;99.90;;;;;;5063473;28;20036;-77
2023/08/01 06:55:37;;;;;;;0.10;0.10;;;22.40;99.90;;;;;;5066654;28;20725;-94
2023/08/01 06:58:03;;;;;;;0.75;0.75;;;22.40;99.90;;;;;;5062026;28;20104;-76
2023/08/01 07:00:31;;;;;;;1.42;1.42;;;19.40;99.90;;;;;;5065445;28;20031;-86
2023/08/01 07:02:59;;;;;;;0.30;0.30;;;22.60;99.90;;;;;;5064134;28;20013;-87
2023/08/01 07:05:27;;;;;;;1.35;1.25;;;22.70;99.90;;;;;;5067278;28;20071;-86
2023/08/01 07:07:53;;;;;;;1.02;0.68;;;22.80;99.90;;;;;;5045809;28;20024;-82
2023/08/01 07:10:20;;;;;;;6.93;5.15;;;22.90;99.90;;;;;;5064372;28;20095;-87
2023/08/01 07:12:45;;;;;;;0.85;0.85;;;23.00;99.90;;;;;;5064949;28;20582;-87
2023/08/01 07:15:11;;;;;;;1.30;1.17;;;23.10;99.90;;;;;;5062993;28;20087;-85
2023/08/01 07:17:40;;;;;;;0.10;0.10;;;23.00;99.90;;;;;;5062705;28;20033;-76
2023/08/01 07:20:09;;;;;;;0.40;0.40;;;23.10;99.90;;;;;;5064936;28;20029;-82
2023/08/01 07:22:35;;;;;;;0.30;0.30;;;23.20;99.90;;;;;;5069941;28;20017;-79
2023/08/01 07:25:01;;;;;;;0.90;0.75;;;23.20;99.90;;;;;;5065501;28;20579;-85
2023/08/01 07:27:27;;;;;;;0.40;0.40;;;23.40;99.90;;;;;;5064336;28;20023;-83
2023/08/01 07:29:52;;;;;;;0.10;0.10;;;23.40;99.90;;;;;;5070995;28;20029;-91
2023/08/01 07:32:21;;;;;;;0.15;0.15;;;23.30;99.90;;;;;;5066519;28;20667;-90
2023/08/01 07:34:47;;;;;;;0.20;0.20;;;24.20;99.90;;;;;;5065638;28;20116;-93
2023/08/01 07:37:12;;;;;;;0.10;0.10;;;23.70;99.90;;;;;;5062788;28;20080;-87
2023/08/01 07:39:38;;;;;;;0.10;0.10;;;23.30;99.90;;;;;;5063219;28;20686;-90
2023/08/01 07:42:04;;;;;;;0.10;0.10;;;23.00;99.90;;;;;;5066629;28;20600;-85
2023/08/01 07:44:31;;;;;;;0.68;0.68;;;23.50;99.90;;;;;;5066817;28;20012;-77
2023/08/01 07:46:57;;;;;;;0.10;0.10;;;23.50;99.90;;;;;;5061497;28;20043;-76
2023/08/01 07:49:23;;;;;;;0.82;0.82;;;20.80;99.90;;;;;;5061411;28;20074;-78
2023/08/01 07:51:49;;;;;;;0.10;0.10;;;23.60;99.90;;;;;;5043129;28;20021;-89
2023/08/01 07:54:14;;;;;;;0.20;0.20;;;23.80;99.90;;;;;;5061820;28;20096;-77
2023/08/01 07:56:40;;;;;;;0.10;0.10;;;21.40;99.90;;;;;;5042730;28;20049;-81
2023/08/01 07:59:06;;;;;;;0.10;0.10;;;23.70;99.90;;;;;;5065122;28;20040;-78
2023/08/01 08:01:32;;;;;;;0.30;0.30;;;23.30;99.90;;;;;;5062297;28;20213;-88
2023/08/01 08:03:57;;;;;;;0.10;0.10;;;23.90;99.90;;;;;;5061598;28;20020;-80
2023/08/01 08:06:24;;;;;;;0.10;0.10;;;24.10;99.90;;;;;;5061513;28;20045;-77
2023/08/01 08:08:49;;;;;;;0.65;0.65;;;24.20;99.90;;;;;;5042180;28;20029;-80
2023/08/01 08:11:16;;;;;;;0.20;0.20;;;24.50;99.90;;;;;;5061164;28;20125;-78
2023/08/01 08:13:42;;;;;;;0.10;0.10;;;25.00;99.90;;;;;;5061789;28;20025;-77
2023/08/01 08:16:08;;;;;;;0.10;0.10;;;24.70;99.60;;;;;;5063985;28;20025;-84
2023/08/01 08:18:33;;;;;;;0.10;0.10;;;24.80;99.40;;;;;;5047243;28;20132;-81
2023/08/01 08:20:59;;;;;;;0.22;0.22;;;24.80;99.50;;;;;;5063182;28;20570;-81
2023/08/01 08:23:25;;;;;;;0.25;0.25;;;25.00;99.20;;;;;;5066135;28;20027;-78
2023/08/01 08:25:51;;;;;;;0.35;0.35;;;25.00;99.10;;;;;;5064817;28;20020;-81
2023/08/01 08:28:30;;;;;;;0.20;0.20;;;25.10;98.80;;;;;;5062122;28;20020;-77
2023/08/01 08:30:57;;;;;;;0.00;0.00;;;25.20;98.40;;;;;;5064561;28;20051;-81
2023/08/01 08:33:22;;;;;;;0.30;0.30;;;25.40;98.20;;;;;;5065168;28;20217;-87
2023/08/01 08:35:49;;;;;;;0.10;0.10;;;25.60;98.10;;;;;;5061524;28;20021;-79
2023/08/01 08:38:16;;;;;;;0.20;0.20;;;25.70;97.80;;;;;;5041901;28;20130;-79
2023/08/01 08:40:58;;;;;;;0.10;0.10;;;25.90;97.60;;;;;;5060660;28;20021;-80
2023/08/01 08:43:26;;;;;;;0.10;0.10;;;26.00;97.50;;;;;;5060366;28;20617;-78
2023/08/01 08:45:56;;;;;;;0.20;0.20;;;26.00;97.20;;;;;;5060151;28;20537;-78
2023/08/01 08:48:22;;;;;;;0.28;0.28;;;26.30;97.50;;;;;;5060708;28;20101;-77
2023/08/01 08:50:50;;;;;;;0.00;0.00;;;27.40;97.70;;;;;;5042458;28;20024;-82
2023/08/01 08:53:17;;;;;;;0.10;0.10;;;27.10;97.30;;;;;;5062547;28;20021;-77
2023/08/01 08:55:43;;;;;;;0.10;0.10;;;26.80;96.30;;;;;;5061024;28;20643;-81
2023/08/01 08:58:10;;;;;;;0.63;0.63;;;27.40;97.10;;;;;;5044311;28;20035;-81
2023/08/01 09:00:37;;;;;;;0.10;0.10;;;24.40;95.50;;;;;;5059072;28;20063;-84
2023/08/01 09:03:06;;;;;;;0.73;0.70;;;27.10;96.00;;;;;;5061512;28;20039;-80
2023/08/01 09:05:40;;;;;;;0.10;0.10;;;28.80;95.50;;;;;;5062761;28;20726;-76
2023/08/01 09:08:14;;;;;;;0.15;0.15;;;27.50;94.70;;;;;;5060739;28;20037;-84
2023/08/01 09:10:39;;;;;;;0.30;0.25;;;27.40;94.70;;;;;;5041057;28;20024;-84
2023/08/01 09:13:10;;;;;;;1.10;1.10;;;27.50;95.00;;;;;;5059384;28;20754;-77
2023/08/01 09:15:36;;;;;;;0.03;0.03;;;;;;;;;;5041365;28;20023;-84
2023/08/01 09:18:07;;;;;;;0.10;0.10;;;28.00;93.80;;;;;;5041843;28;20575;-90
2023/08/01 09:20:51;;;;;;;0.20;0.20;;;28.10;93.50;;;;;;5060425;28;20098;-83
2023/08/01 09:23:17;;;;;;;0.10;0.10;;;28.20;93.30;;;;;;5060083;28;20090;-77
2023/08/01 09:25:44;;;;;;;0.00;0.00;;;28.00;93.60;;;;;;5062090;28;20047;-77
2023/08/01 09:28:21;;;;;;;0.25;0.25;;;28.30;93.70;;;;;;5041211;28;20023;-79
2023/08/01 09:30:54;;;;;;;0.00;0.00;;;28.40;92.50;;;;;;5057056;28;20633;-86
2023/08/01 09:33:20;;;;;;;0.00;0.00;;;28.60;92.30;;;;;;5057901;28;20020;-78
2023/08/01 09:35:46;;;;;;;0.00;0.00;;;28.60;92.30;;;;;;5042197;28;20666;-83
2023/08/01 09:38:15;;;;;;;0.00;0.00;;;28.90;92.20;;;;;;5059532;28;20462;-79
2023/08/01 09:40:42;;;;;;;0.10;0.10;;;31.80;92.00;;;;;;5041020;28;20024;-78
2023/08/01 09:43:09;;;;;;;0.10;0.10;;;29.20;90.60;;;;;;5058653;28;20086;-83
2023/08/01 09:45:35;;;;;;;0.00;0.00;;;29.30;89.00;;;;;;5059253;28;20025;-81
2023/08/01 09:48:01;;;;;;;0.52;0.52;;;29.20;86.90;;;;;;5059672;28;20062;-79
2023/08/01 09:50:30;;;;;;;0.17;0.17;;;29.20;88.00;;;;;;5059210;28;20019;-79
2023/08/01 09:52:56;;;;;;;0.00;0.00;;;29.30;86.60;;;;;;5058135;28;20013;-79
2023/08/01 09:55:24;;;;;;;0.00;0.00;;;29.40;87.10;;;;;;5059034;28;20574;-84
2023/08/01 09:57:56;;;;;;;0.15;0.15;;;29.50;86.50;;;;;;5060728;28;20036;-77
2023/08/01 10:00:23;;;;;;;0.10;0.10;;;29.50;86.80;;;;;;5042159;28;20058;-78
2023/08/01 10:02:53;;;;;;;0.35;0.35;;;29.30;85.00;;;;;;5063046;28;20743;-88
2023/08/01 10:05:20;;;;;;;0.08;0.08;;;29.50;85.40;;;;;;5058232;28;20024;-79
2023/08/01 10:07:56;;;;;;;0.00;0.00;;;29.50;84.40;;;;;;5040765;28;20685;-82
2023/08/01 10:10:23;;;;;;;0.55;0.55;;;29.90;86.00;;;;;;5062560;28;20024;-80
2023/08/01 10:12:50;;;;;;;0.75;0.60;;;29.70;82.10;;;;;;5062363;28;20017;-78
2023/08/01 10:15:20;;;;;;;0.28;0.20;;;30.10;81.80;;;;;;5062907;28;20009;-77
2023/08/01 10:17:46;;;;;;;0.08;0.08;;;30.20;78.60;;;;;;5063558;28;20589;-80
2023/08/01 10:20:14;;;;;;;0.05;0.05;;;30.40;79.60;;;;;;5063796;28;20102;-82
2023/08/01 10:22:44;;;;;;;0.00;0.00;;;30.50;79.20;;;;;;5063046;28;20020;-79
2023/08/01 10:25:11;;;;;;;0.52;0.20;;;31.20;76.50;;;;;;5062574;28;20029;-78
2023/08/01 10:27:37;;;;;;;0.20;0.20;;;31.00;76.80;;;;;;5044713;28;20012;-88
2023/08/01 10:30:09;;;;;;;0.10;0.10;;;30.70;75.90;;;;;;5045865;28;20032;-81
2023/08/01 10:32:37;;;;;;;0.23;0.13;;;30.90;75.10;;;;;;5044532;28;20013;-79
2023/08/01 10:35:04;;;;;;;0.10;0.10;;;31.00;73.40;;;;;;5068843;28;20020;-83
2023/08/01 10:37:49;;;;;;;0.45;0.30;;;31.00;73.70;;;;;;5048561;28;20040;-87
2023/08/01 10:40:14;;;;;;;0.10;0.10;;;32.30;75.00;;;;;;5063490;28;20040;-81
2023/08/01 10:42:45;;;;;;;0.08;0.08;;;31.40;74.40;;;;;;5048704;28;20021;-84
2023/08/01 10:45:22;;;;;;;0.00;0.00;;;31.60;71.20;;;;;;5046009;28;20021;-76
2023/08/01 10:47:49;;;;;;;0.10;0.10;;;31.60;72.20;;;;;;5061927;28;20009;-77
2023/08/01 10:50:16;;;;;;;0.00;0.00;;;31.70;71.50;;;;;;5061935;28;20154;-79
2023/08/01 10:52:43;;;;;;;0.10;0.10;;;31.80;71.40;;;;;;5043602;28;20155;-77
2023/08/01 10:55:10;;;;;;;0.10;0.10;;;29.70;69.80;;;;;;5044233;28;20031;-77
2023/08/01 10:57:48;;;;;;;0.10;0.10;;;32.20;71.30;;;;;;5060910;28;20086;-77
2023/08/01 11:00:17;;;;;;;0.10;0.10;;;32.40;70.00;;;;;;5061113;28;20221;-76
2023/08/01 11:02:52;;;;;;;0.03;0.03;;;32.40;71.40;;;;;;5060872;28;20009;-77
2023/08/01 11:05:23;;;;;;;0.80;0.55;;;31.30;69.00;;;;;;5043179;28;20696;-77
2023/08/01 11:08:00;;;;;;;0.00;0.00;;;32.80;70.30;;;;;;5043802;28;20029;-86
2023/08/01 11:10:31;;;;;;;0.63;0.20;;;33.10;70.40;;;;;;5060936;28;20247;-78
2023/08/01 11:12:58;;;;;;;0.35;0.35;;;33.40;71.00;;;;;;5156541;22;20045;-77
2023/08/01 11:15:25;;;;;;;0.82;0.82;;;34.50;70.20;;;;;;5021558;28;20025;-80
2023/08/01 11:17:54;;;;;;;0.25;0.25;;;32.80;68.00;;;;;;5021333;28;20214;-81
2023/08/01 11:20:22;;;;;;;0.05;0.05;;;31.60;66.80;;;;;;5020705;28;20221;-81
2023/08/01 11:22:57;;;;;;;0.10;0.10;;;34.90;68.30;;;;;;5021280;28;20022;-79
2023/08/01 11:25:37;;;;;;;0.22;0.22;;;35.00;66.50;;;;;;5021279;28;20334;-77
2023/08/01 11:28:13;;;;;;;0.10;0.10;;;35.00;67.20;;;;;;5023204;28;20034;-80
2023/08/01 11:30:40;;;;;;;11.57;0.80;;;35.40;66.00;;;;;;5020617;28;20111;-78
2023/08/01 11:33:15;;;;;;;0.20;0.20;;;34.70;67.30;;;;;;5020579;28;20396;-83
2023/08/01 11:35:42;;;;;;;0.00;0.00;;;35.00;68.30;;;;;;5020672;28;20026;-79
2023/08/01 11:38:08;;;;;;;0.80;0.40;;;34.70;65.70;;;;;;5020569;28;20018;-76
2023/08/01 11:40:34;;;;;;;0.10;0.10;;;34.30;65.80;;;;;;5020993;28;20474;-80
2023/08/01 11:43:00;;;;;;;1.52;0.40;;;34.60;66.20;;;;;;5018890;28;20037;-77
2023/08/01 11:45:27;;;;;;;0.10;0.10;;;34.40;67.00;;;;;;5020074;28;20018;-77
2023/08/01 11:47:53;;;;;;;0.85;0.63;;;32.70;64.80;;;;;;5020585;28;20044;-78
2023/08/01 11:50:30;;;;;;;0.25;0.25;;;34.30;68.00;;;;;;5021023;28;20029;-77
2023/08/01 11:52:56;;;;;;;0.28;0.28;;;34.30;67.30;;;;;;5020222;28;20074;-76
2023/08/01 11:55:26;;;;;;;0.15;0.15;;;34.50;67.40;;;;;;5019053;28;20617;-82
2023/08/01 11:57:53;;;;;;;0.10;0.10;;;34.50;67.30;;;;;;5020117;28;20633;-79
2023/08/01 12:00:29;;;;;;;0.35;0.20;;;33.90;66.80;;;;;;5020353;28;20087;-78
2023/08/01 12:03:07;;;;;;;1.08;0.30;;;33.60;67.40;;;;;;5018964;28;20859;-84
2023/08/01 12:05:33;;;;;;;0.22;0.22;;;33.30;67.70;;;;;;5019404;28;20104;-78
2023/08/01 12:08:19;;;;;;;0.98;0.57;;;32.90;68.30;;;;;;5019690;28;20592;-77
2023/08/01 12:10:45;;;;;;;0.80;0.50;;;32.70;68.40;;;;;;5019843;28;20041;-79
2023/08/01 12:13:25;;;;;;;1.65;0.60;;;32.50;70.70;;;;;;5018995;28;20837;-82
2023/08/01 12:15:56;;;;;;;0.00;0.00;;;32.50;70.80;;;;;;5019842;28;20030;-89
2023/08/01 12:18:27;;;;;;;0.47;0.30;;;31.90;70.60;;;;;;5020568;28;20175;-79
2023/08/01 12:20:53;;;;;;;0.20;0.20;;;32.00;71.00;;;;;;5018703;28;20017;-80
2023/08/01 12:23:20;;;;;;;0.20;0.20;;;31.40;70.70;;;;;;5019676;28;20041;-78
2023/08/01 12:25:49;;;;;;;4.38;0.90;;;32.20;72.30;;;;;;5019330;28;20041;-77
2023/08/01 12:28:15;;;;;;;0.10;0.10;;;32.50;71.00;;;;;;5019380;28;20052;-83
2023/08/01 12:30:42;;;;;;;0.10;0.10;;;33.40;70.10;;;;;;5018305;28;20045;-79
2023/08/01 12:33:08;;;;;;;0.38;0.38;;;34.60;68.20;;;;;;5019371;28;20018;-79
2023/08/01 12:35:34;;;;;;;0.15;0.15;;;35.70;67.00;;;;;;5019088;28;20019;-77
2023/08/01 12:38:00;;;;;;;0.10;0.10;;;36.50;66.30;;;;;;5017801;28;20723;-78
2023/08/01 12:40:26;;;;;;;0.10;0.10;;;37.10;64.40;;;;;;5019636;28;20021;-78
2023/08/01 12:42:52;;;;;;;0.20;0.20;;;37.60;63.80;;;;;;5019302;28;20056;-80
2023/08/01 12:45:18;;;;;;;0.17;0.17;;;38.10;62.70;;;;;;5019549;28;20036;-78
2023/08/01 12:47:44;;;;;;;0.10;0.10;;;38.30;61.30;;;;;;5016980;28;20029;-84